Latest Weather Observations for Dartmoor

IDV60801

Issued at 6:03 pm EST Monday 25 September 2017 (issued every 30 minutes, with the page automatically refreshed every 10 minutes)

About weather observations | Map of weather stations | Latest weather observations for VIC | Other Formats
Station Details ID: 090194 Name: DARTMOOR Lat: -37.92 Lon: 141.26 Height: 51.0 m
Data from the previous 72 hours. | See also: Recent months at Dartmoor
Date/Time
EST
Temp
°C
App
Temp
°C
Dew
Point
°C
Rel
Hum
%
Delta-T
°C
Wind Press
QNH
hPa
Press
MSL
hPa
Rain since
9am
mm
Dir  Spd
km/h
Gust
km/h
Spd
kts
Gust
kts
25/06:00pm 10.6 7.5 5.4 70 2.4 SW 11 19 6 10 1014.4 1014.4 0.8
25/05:30pm 11.5 7.6 5.4 66 2.8 SW 15 22 8 12 1014.1 1014.1 0.8
25/05:00pm 11.3 7.8 5.4 67 2.7 WSW 13 19 7 10 1013.9 1013.9 0.8
25/04:30pm 12.0 8.5 5.4 64 3.1 SW 13 24 7 13 1013.6 1013.6 0.8
25/04:00pm 12.1 7.9 5.9 66 2.9 SW 17 28 9 15 1013.3 1013.3 0.8
25/03:30pm 12.4 7.5 5.3 62 3.3 SW 20 30 11 16 1013.0 1013.0 0.8
25/03:00pm 11.9 7.5 6.4 69 2.6 SW 19 32 10 17 1012.9 1012.9 0.8
25/02:30pm 13.2 8.7 7.0 66 3.0 SW 20 28 11 15 1012.7 1012.7 0.8
25/02:00pm 12.9 8.9 6.7 66 3.0 SW 17 26 9 14 1012.6 1012.6 0.8
25/01:30pm 12.8 8.8 6.6 66 3.0 SW 17 30 9 16 1012.5 1012.5 0.8
25/01:00pm 12.8 8.3 5.9 63 3.3 SW 19 28 10 15 1012.3 1012.3 0.8
25/12:30pm 11.8 7.0 5.4 65 3.0 SW 20 32 11 17 1012.2 1012.2 0.8
25/12:00pm 12.6 8.2 6.6 67 2.9 SW 19 28 10 15 1012.0 1012.0 0.8
25/11:30am 12.4 8.5 7.1 70 2.6 WSW 17 26 9 14 1011.8 1011.8 0.8
25/11:00am 12.1 7.5 6.4 68 2.7 WSW 20 37 11 20 1011.7 1011.7 0.8
25/10:30am 11.3 8.0 8.0 80 1.6 WSW 15 26 8 14 1011.5 1011.5 0.8
25/10:00am 11.3 9.7 10.2 93 0.6 W 9 17 5 9 1011.2 1011.2 0.8
25/09:30am 10.4 7.0 9.0 91 0.7 W 17 24 9 13 1010.7 1010.7 0.4
25/09:00am 10.2 8.4 9.6 96 0.3 W 9 15 5 8 1010.4 1010.4 13.0
25/08:30am 10.4 8.8 10.1 98 0.2 W 9 13 5 7 1010.0 1010.0 13.0
25/08:00am 9.4 7.9 9.1 98 0.1 W 7 13 4 7 1009.5 1009.5 13.0
25/07:30am 9.0 7.0 8.7 98 0.1 WNW 9 13 5 7 1008.9 1008.9 13.0
25/07:00am 8.6 6.9 8.3 98 0.1 WNW 7 11 4 6 1008.6 1008.6 13.0
25/06:30am 8.5 6.8 8.2 98 0.1 NW 7 9 4 5 1008.0 1008.0 12.4
25/06:00am 8.5 7.3 8.2 98 0.1 NW 4 6 2 3 1007.4 1007.5 12.2
25/05:30am 8.8 7.3 8.5 98 0.1 WNW 6 11 3 6 1006.9 1007.0 12.2
25/05:00am 9.1 7.1 8.8 98 0.1 NW 9 13 5 7 1006.6 1006.7 11.4
25/04:30am 9.3 7.8 9.0 98 0.1 WNW 7 11 4 6 1006.3 1006.4 11.4
25/04:00am 9.3 7.8 9.0 98 0.1 WNW 7 11 4 6 1005.9 1006.0 11.2
25/03:30am 9.3 7.8 9.0 98 0.1 WNW 7 11 4 6 1005.7 1005.8 11.2
25/03:00am 9.3 7.3 8.8 97 0.2 NW 9 13 5 7 1005.4 1005.5 10.8
25/02:30am 9.9 8.1 9.4 97 0.2 WNW 9 13 5 7 1005.6 1005.7 10.8
25/02:00am 10.0 8.2 9.5 97 0.3 WNW 9 15 5 8 1005.5 1005.6 10.4
25/01:30am 10.2 7.7 9.7 97 0.3 WNW 13 19 7 10 1005.6 1005.7 10.4
25/01:00am 10.2 8.1 9.7 97 0.3 NW 11 17 6 9 1005.2 1005.3 9.4
25/12:30am 10.3 8.2 9.7 96 0.3 WNW 11 15 6 8 1005.1 1005.2 9.4
25/12:00am 10.3 8.2 9.7 96 0.3 WNW 11 15 6 8 1004.8 1004.9 9.4
 
Date/Time
EST
Temp
°C
App
Temp
°C
Dew
Point
°C
Rel
Hum
%
Delta-T
°C
Wind Press
QNH
hPa
Press
MSL
hPa
Rain since
9am
mm
Dir  Spd
km/h
Gust
km/h
Spd
kts
Gust
kts
24/11:30pm 10.4 8.7 9.8 96 0.3 WNW 9 17 5 9 1004.7 1004.8 9.4
24/11:00pm 10.5 8.0 9.7 95 0.4 WNW 13 20 7 11 1004.5 1004.6 9.2
24/10:30pm 10.8 8.4 10.0 95 0.4 W 13 20 7 11 1004.3 1004.4 9.2
24/10:00pm 11.1 9.1 10.3 95 0.4 WNW 11 19 6 10 1003.9 1004.0 6.6
24/09:30pm 10.9 8.5 10.1 95 0.4 NW 13 20 7 11 1003.3 1003.4 6.6
24/09:00pm 11.1 8.4 10.2 94 0.5 WNW 15 20 8 11 1002.8 1002.9 6.6
24/08:30pm 11.1 8.7 10.0 93 0.6 WNW 13 22 7 12 1002.4 1002.5 5.6
24/08:00pm 11.2 8.3 9.8 91 0.7 WNW 15 20 8 11 1002.0 1002.1 5.4
24/07:30pm 11.4 7.8 10.0 91 0.7 WNW 19 30 10 16 1001.2 1001.2 5.4
24/07:00pm 11.7 8.2 10.3 91 0.7 WNW 19 28 10 15 1000.5 1000.5 5.4
24/06:30pm 11.6 7.9 10.3 92 0.7 WNW 20 33 11 18 999.8 999.8 5.4
24/06:00pm 11.9 7.9 10.3 90 0.8 WNW 22 37 12 20 999.3 999.3 5.2
24/05:30pm 12.4 6.3 9.8 84 1.3 WNW 32 48 17 26 998.5 998.5 4.8
24/05:12pm 12.8 7.7 10.5 86 1.2 WNW 28 48 15 26 998.1 998.1 4.8
24/05:00pm 12.6 7.6 10.8 89 0.9 WNW 28 44 15 24 998.0 998.0 4.4
24/04:30pm 14.4 7.9 9.0 70 2.8 WNW 33 57 18 31 997.2 997.2 4.2
24/04:00pm 14.3 8.2 10.3 77 2.1 WNW 33 57 18 31 996.7 996.7 4.2
24/03:42pm 14.0 7.6 9.4 74 2.4 WNW 33 56 18 30 996.4 996.4 4.2
24/03:30pm 14.8 7.7 9.6 71 2.7 WNW 37 54 20 29 996.3 996.3 4.2
24/03:00pm 14.4 7.8 11.4 82 1.6 NW 37 56 20 30 996.4 996.4 4.2
24/02:30pm 15.2 8.4 9.1 67 3.1 WNW 35 65 19 35 996.1 996.1 4.2
24/02:00pm 14.3 7.6 10.9 80 1.8 NW 37 57 20 31 996.1 996.1 4.2
24/01:32pm 14.1 7.0 9.7 75 2.3 NW 37 57 20 31 996.2 996.2 3.8
24/01:30pm 14.6 7.4 10.4 76 2.2 NW 39 57 21 31 996.2 996.2 3.8
24/01:19pm 14.0 8.3 11.3 84 1.4 NW 32 57 17 31 996.4 996.4 3.8
24/01:00pm 12.4 6.6 10.8 90 0.8 NW 32 46 17 25 996.8 996.8 3.8
24/12:35pm 14.0 6.6 9.8 76 2.2 NW 39 69 21 37 996.3 996.3 2.4
24/12:30pm 14.3 7.4 10.3 77 2.1 NW 37 56 20 30 996.4 996.4 2.4
24/12:05pm 13.0 7.7 9.8 81 1.6 NW 28 46 15 25 996.9 996.9 2.4
24/12:00pm 13.4 7.9 10.4 82 1.6 NW 30 48 16 26 996.9 996.9 2.4
24/11:40am 12.8 7.6 10.3 85 1.3 NW 28 50 15 27 997.1 997.1 2.2
24/11:30am 13.3 9.3 11.7 90 0.9 WNW 24 35 13 19 996.8 996.8 2.0
24/11:00am 12.8 8.4 10.5 86 1.2 NW 24 35 13 19 997.2 997.2 0.6
24/10:30am 12.0 7.5 10.2 89 0.9 NW 24 39 13 21 997.5 997.5 0.6
24/10:12am 11.9 6.1 9.6 86 1.2 NW 30 48 16 26 997.5 997.5 0.4
24/10:00am 13.1 6.6 9.0 76 2.1 NW 33 48 18 26 997.4 997.4 0.0
24/09:38am 13.5 8.0 9.2 75 2.2 NNW 28 48 15 26 997.2 997.2 0.0
24/09:30am 13.1 7.6 9.2 77 2.0 NNW 28 44 15 24 997.2 997.2 0.0
24/09:00am 12.5 7.8 9.1 80 1.7 NNW 24 35 13 19 997.5 997.5 3.0
24/08:30am 11.8 7.5 9.2 84 1.3 NNW 22 33 12 18 997.5 997.5 3.0
24/08:00am 10.8 7.0 9.2 90 0.8 NNW 19 32 10 17 997.4 997.4 3.0
24/07:30am 9.7 6.1 8.5 92 0.6 NNW 17 28 9 15 997.3 997.3 3.0
24/07:00am 9.3 6.0 8.2 93 0.5 N 15 20 8 11 997.2 997.2 3.0
24/06:30am 8.9 5.5 7.8 93 0.5 NNW 15 20 8 11 997.1 997.1 3.0
24/06:00am 8.8 5.8 7.7 93 0.5 N 13 20 7 11 996.8 996.8 3.0
24/05:30am 9.2 5.5 8.0 92 0.6 NNW 17 24 9 13 997.1 997.1 2.8
24/05:00am 9.0 5.5 7.3 89 0.8 NNW 15 20 8 11 996.9 996.9 2.6
24/04:30am 9.7 6.1 8.3 91 0.7 NNW 17 26 9 14 996.8 996.8 2.2
24/04:00am 9.7 6.5 8.5 92 0.6 NNW 15 24 8 13 996.5 996.5 2.2
24/03:30am 10.1 6.3 9.0 93 0.5 NW 19 26 10 14 996.7 996.7 1.8
24/03:00am 10.8 6.0 8.7 87 1.0 NW 24 37 13 20 996.8 996.8 0.6
24/02:30am 11.0 8.3 8.8 86 1.1 NNW 13 19 7 10 996.9 996.9 0.6
24/02:00am 11.3 8.1 9.9 91 0.7 NNW 17 24 9 13 997.3 997.3 0.6
24/01:30am 11.3 8.2 10.2 93 0.6 NNW 17 28 9 15 998.0 998.0 0.6
24/01:00am 11.4 7.8 10.0 91 0.7 NNW 19 30 10 16 998.1 998.1 0.4
24/12:30am 10.9 8.7 9.2 89 0.8 NNW 11 19 6 10 998.5 998.5 0.4
24/12:00am 11.5 8.9 9.4 87 1.1 NNW 13 20 7 11 998.7 998.7 0.4
 
Date/Time
EST
Temp
°C
App
Temp
°C
Dew
Point
°C
Rel
Hum
%
Delta-T
°C
Wind Press
QNH
hPa
Press
MSL
hPa
Rain since
9am
mm
Dir  Spd
km/h
Gust
km/h
Spd
kts
Gust
kts
23/11:30pm 11.4 8.7 8.8 84 1.3 NNW 13 17 7 9 998.8 998.8 0.4
23/11:00pm 12.1 9.4 8.8 80 1.7 NW 13 24 7 13 998.8 998.8 0.4
23/10:30pm 12.6 9.2 9.1 79 1.8 NW 17 24 9 13 999.0 999.0 0.4
23/10:00pm 12.9 8.8 8.8 76 2.1 NW 20 32 11 17 999.2 999.2 0.4
23/09:30pm 12.9 9.0 9.5 80 1.7 NW 20 32 11 17 999.1 999.1 0.4
23/09:00pm 13.4 8.5 9.8 79 1.9 NW 26 37 14 20 999.0 999.0 0.4
23/08:30pm 13.1 10.3 10.1 82 1.6 NW 15 22 8 12 998.4 998.4 0.4
23/08:00pm 12.8 9.2 10.5 86 1.2 W 20 39 11 21 998.5 998.5 0.4
23/07:30pm 13.3 9.4 9.5 78 1.9 NW 20 30 11 16 997.9 997.9 0.4
23/07:00pm 13.6 8.9 9.3 75 2.2 WNW 24 39 13 21 997.6 997.6 0.4
23/06:30pm 14.1 9.8 9.5 74 2.4 WNW 22 39 12 21 997.1 997.1 0.4
23/06:00pm 14.9 10.7 9.7 71 2.7 WNW 22 35 12 19 996.7 996.7 0.4
23/05:30pm 15.7 10.0 9.8 68 3.1 WNW 30 50 16 27 996.1 996.1 0.4
23/05:00pm 16.3 10.2 9.9 66 3.4 WNW 32 56 17 30 995.4 995.4 0.4
23/04:57pm 16.4 11.3 10.7 69 3.0 WNW 28 50 15 27 995.4 995.4 0.4
23/04:30pm 16.4 12.6 12.4 77 2.2 WNW 24 35 13 19 995.0 995.0 0.4
23/04:17pm 16.1 11.5 12.3 78 2.1 WNW 28 48 15 26 994.8 994.8 0.4
23/04:00pm 16.0 11.9 12.7 81 1.8 WNW 26 43 14 23 994.7 994.7 0.4
23/03:30pm 14.8 10.2 12.3 85 1.4 WNW 28 50 15 27 994.3 994.3 0.4
23/03:22pm 15.3 10.6 12.1 81 1.7 W 28 50 15 27 994.4 994.4 0.4
23/03:00pm 15.3 12.5 13.3 88 1.1 W 20 33 11 18 994.3 994.3 0.4
23/02:30pm 14.1 12.1 12.7 91 0.8 W 15 20 8 11 994.4 994.4 0.4
23/02:00pm 15.2 11.4 11.2 77 2.2 W 22 37 12 20 994.2 994.2 0.0
23/01:30pm 15.4 13.2 12.0 80 1.9 W 15 26 8 14 994.2 994.2 0.0
23/01:00pm 16.4 13.4 12.6 78 2.1 WSW 20 32 11 17 993.8 993.8 0.0
23/12:30pm 18.1 15.9 12.1 68 3.3 W 15 28 8 15 993.7 993.7 0.0
23/12:00pm 18.7 18.6 12.0 65 3.7 E 4 9 2 5 992.7 992.7 0.0
23/11:30am 19.0 17.5 11.8 63 4.0 W 11 20 6 11 993.9 993.9 0.0
23/11:00am 19.3 18.2 11.8 62 4.2 W 9 15 5 8 993.9 993.9 0.0
23/10:30am 18.7 19.1 12.5 67 3.5 SE 2 6 1 3 993.5 993.5 0.0
23/10:00am 17.2 16.9 13.3 78 2.2 ESE 7 13 4 7 993.0 993.0 0.0
23/09:30am 15.0 14.6 12.9 87 1.2 ENE 7 11 4 6 994.3 994.3 0.0
23/09:00am 13.9 13.4 12.6 92 0.7 E 7 11 4 6 995.0 995.0 0.0
23/08:30am 13.4 12.9 12.5 94 0.5 ENE 7 11 4 6 996.3 996.3 0.0
23/08:00am 12.9 12.8 12.0 94 0.5 NE 4 7 2 4 997.4 997.4 0.0
23/07:30am 12.9 13.2 12.1 95 0.4 ENE 2 6 1 3 996.9 996.9 0.0
23/07:00am 11.8 10.4 11.0 95 0.4 ENE 9 13 5 7 996.1 996.1 0.0
23/06:30am 11.9 11.1 11.0 94 0.5 NE 6 13 3 7 997.8 997.8 0.0
23/06:00am 12.2 12.2 11.1 93 0.6 SSW 2 6 1 3 999.3 999.3 0.0
23/05:30am 12.6 11.7 11.2 91 0.7 SSW 7 11 4 6 999.1 999.1 0.0
23/05:00am 13.2 12.4 11.6 90 0.9 WSW 7 13 4 7 998.7 998.7 0.0
23/04:30am 12.8 10.8 11.5 92 0.7 WNW 13 20 7 11 1000.4 1000.4 0.0
23/04:00am 12.6 12.3 11.5 93 0.6 W 4 7 2 4 998.8 998.8 0.0
23/03:30am 12.6 12.3 11.5 93 0.6 NNE 4 6 2 3 998.1 998.1 0.0
23/03:00am 11.1 10.1 10.2 94 0.5 ENE 6 9 3 5 998.0 998.0 0.0
23/02:30am 10.7 10.6 9.5 92 0.6 CALM 0 4 0 2 999.0 999.0 0.0
23/02:00am 11.7 11.1 10.3 91 0.7 N 4 4 2 2 1000.1 1000.1 0.0
23/01:30am 12.4 12.6 10.6 89 0.9 CALM 0 0 0 0 1000.7 1000.7 0.0
23/01:00am 13.2 12.8 11.1 87 1.1 N 4 6 2 3 1001.0 1001.0 0.0
23/12:30am 13.4 13.4 11.1 86 1.2 NE 2 4 1 2 1001.5 1001.5 0.0
23/12:00am 14.0 13.8 10.6 80 1.8 N 2 6 1 3 1001.7 1001.7 0.0
 
Date/Time
EST
Temp
°C
App
Temp
°C
Dew
Point
°C
Rel
Hum
%
Delta-T
°C
Wind Press
QNH
hPa
Press
MSL
hPa
Rain since
9am
mm
Dir  Spd
km/h
Gust
km/h
Spd
kts
Gust
kts
22/11:30pm 15.4 14.7 11.4 77 2.2 W 6 9 3 5 1001.9 1002.0 0.0
22/11:00pm 16.4 15.1 11.1 71 2.9 W 9 15 5 8 1001.6 1001.6 0.0
22/10:30pm 17.3 16.3 10.4 64 3.7 N 6 7 3 4 1001.0 1001.0 0.0
22/10:00pm 19.0 17.8 10.3 57 4.7 N 7 9 4 5 1001.1 1001.1 0.0
22/09:30pm 19.4 17.9 10.7 57 4.7 N 9 13 5 7 1001.3 1001.3 0.0
22/09:00pm 19.7 18.4 11.2 58 4.7 NNE 9 15 5 8 1001.6 1001.6 0.0
22/08:30pm 19.4 18.1 11.4 60 4.4 NNE 9 13 5 7 1001.8 1001.8 0.0
22/08:00pm 19.7 18.4 11.2 58 4.7 NNE 9 15 5 8 1002.0 1002.1 0.0
22/07:30pm 20.1 18.8 11.1 56 4.9 NNE 9 13 5 7 1002.1 1002.2 0.0
22/07:00pm 20.2 19.2 11.1 56 5.0 N 7 11 4 6 1002.2 1002.3 0.0
22/06:30pm 20.7 19.6 11.9 57 4.9 N 9 11 5 6 1002.3 1002.4 0.0

Other Formats:

Comma delimited format used in spreadsheet applications
http://www.bom.gov.au/fwo/IDV60801/IDV60801.95822.axf

JavaScript Object Notation format (JSON) in row-major order
http://www.bom.gov.au/fwo/IDV60801/IDV60801.95822.json